Time;durP1;ratioP1;P1;durP2;ratioP2;P2;SDS_P1;SDS_P2;PMS_P1;PMS_P2;Temp;Humidity;BMP_temperature;BMP_pressure;BME280_temperature;BME280_humidity;BME280_pressure;Samples;Min_cycle;Max_cycle;Signal;HPM_P1;HPM_P2
2023/04/13 00:00:07;;;;;;;2.83;1.00;;;6.10;99.90;;;;;;6139350;23;20203;-71
2023/04/13 00:02:37;;;;;;;3.43;1.17;;;6.20;99.90;;;;;;6138756;23;20267;-70
2023/04/13 00:05:04;;;;;;;2.90;1.20;;;6.30;99.90;;;;;;6103409;23;20382;-72
2023/04/13 00:07:32;;;;;;;2.53;1.10;;;6.40;99.90;;;;;;6140723;23;20657;-71
2023/04/13 00:10:01;;;;;;;4.73;1.17;;;6.50;99.90;;;;;;6139159;23;20475;-70
2023/04/13 00:12:27;;;;;;;4.20;0.90;;;6.50;99.90;;;;;;6138630;23;20398;-71
2023/04/13 00:14:52;;;;;;;3.57;1.03;;;6.60;99.90;;;;;;6138856;23;20376;-70
2023/04/13 00:17:18;;;;;;;1.60;0.87;;;6.70;99.90;;;;;;6139487;23;20467;-70
2023/04/13 00:19:46;;;;;;;2.73;1.00;;;6.80;99.90;;;;;;6138229;23;20490;-72
2023/04/13 00:22:15;;;;;;;2.53;1.10;;;6.90;99.90;;;;;;6138515;23;20171;-71
2023/04/13 00:24:42;;;;;;;3.43;1.43;;;7.10;99.90;;;;;;6130254;23;20376;-71
2023/04/13 00:27:09;;;;;;;1.30;0.80;;;7.20;99.90;;;;;;6113212;23;20840;-71
2023/04/13 00:29:35;;;;;;;1.90;0.80;;;7.30;99.90;;;;;;6103189;23;20383;-70
2023/04/13 00:32:01;;;;;;;3.83;0.80;;;7.30;99.90;;;;;;6102896;23;20407;-71
2023/04/13 00:34:29;;;;;;;2.80;0.90;;;7.40;99.90;;;;;;6127513;23;20364;-71
2023/04/13 00:36:58;;;;;;;1.60;1.10;;;7.40;99.90;;;;;;6138223;23;20447;-71
2023/04/13 00:39:29;;;;;;;3.43;0.73;;;7.40;99.90;;;;;;6102939;23;20836;-71
2023/04/13 00:41:57;;;;;;;4.30;0.80;;;7.40;99.90;;;;;;6102251;23;20430;-70
2023/04/13 00:44:23;;;;;;;1.30;0.70;;;7.50;99.90;;;;;;6137913;23;20360;-69
2023/04/13 00:46:49;;;;;;;1.77;0.80;;;7.40;99.90;;;;;;6130144;23;20821;-71
2023/04/13 00:49:16;;;;;;;2.00;0.80;;;7.50;99.90;;;;;;6138200;23;20140;-72
2023/04/13 00:51:46;;;;;;;2.10;1.00;;;7.50;99.90;;;;;;6138589;23;20392;-71
2023/04/13 00:54:13;;;;;;;3.20;1.00;;;7.60;99.90;;;;;;6130599;23;20392;-72
2023/04/13 00:56:43;;;;;;;4.57;1.40;;;7.60;99.90;;;;;;6138437;23;20372;-71
2023/04/13 00:59:13;;;;;;;6.07;1.37;;;7.70;98.40;;;;;;6138242;23;20376;-71
2023/04/13 01:01:45;;;;;;;1.87;1.17;;;7.80;97.50;;;;;;6137077;23;20396;-70
2023/04/13 01:04:18;;;;;;;3.20;0.70;;;7.80;97.20;;;;;;6137610;23;20840;-70
2023/04/13 01:06:55;;;;;;;2.80;0.77;;;7.90;97.30;;;;;;6102868;23;20800;-71
2023/04/13 01:09:40;;;;;;;2.53;0.90;;;7.90;96.80;;;;;;6113620;23;20637;-70
2023/04/13 01:12:30;;;;;;;4.20;1.00;;;7.80;97.10;;;;;;6138811;23;20776;-71
2023/04/13 01:15:03;;;;;;;1.53;0.80;;;7.80;97.20;;;;;;6138217;23;20375;-70
2023/04/13 01:17:31;;;;;;;3.60;1.30;;;7.80;97.10;;;;;;6102987;23;20650;-70
2023/04/13 01:20:14;;;;;;;2.20;0.80;;;7.70;97.90;;;;;;6138484;23;20371;-69
2023/04/13 01:22:54;;;;;;;3.53;1.20;;;7.60;98.00;;;;;;6102295;23;20738;-71
2023/04/13 01:25:29;;;;;;;4.80;1.20;;;7.60;97.90;;;;;;6102572;23;20634;-71
2023/04/13 01:28:06;;;;;;;2.53;0.80;;;7.60;98.20;;;;;;6138367;23;20375;-69
2023/04/13 01:30:36;;;;;;;4.20;1.20;;;7.60;98.20;;;;;;6079518;23;20458;-69
2023/04/13 01:33:05;;;;;;;2.30;0.97;;;7.60;98.50;;;;;;6102440;23;20411;-70
2023/04/13 01:35:32;;;;;;;2.40;1.00;;;7.70;97.70;;;;;;6103841;23;20384;-70
2023/04/13 01:37:58;;;;;;;2.53;0.87;;;7.80;97.10;;;;;;6103204;23;20386;-71
2023/04/13 01:40:28;;;;;;;5.70;0.80;;;7.80;97.30;;;;;;6103497;23;20515;-71
2023/04/13 01:42:56;;;;;;;3.73;0.90;;;7.80;97.10;;;;;;6104319;23;20874;-72
2023/04/13 01:45:24;;;;;;;1.67;1.00;;;7.90;97.50;;;;;;6106867;23;20411;-72
2023/04/13 01:48:23;;;;;;;1.87;0.90;;;7.80;97.70;;;;;;6142797;23;20512;-70
2023/04/13 01:51:02;;;;;;;3.50;1.03;;;7.80;97.50;;;;;;6145730;23;20438;-71
2023/04/13 01:53:52;;;;;;;1.50;1.00;;;7.80;97.50;;;;;;6103683;23;20391;-71
2023/04/13 01:56:18;;;;;;;1.27;0.70;;;7.80;97.10;;;;;;6139925;23;20383;-71
2023/04/13 01:58:48;;;;;;;2.00;0.70;;;7.90;97.30;;;;;;6105081;23;20438;-69
2023/04/13 02:01:15;;;;;;;4.33;1.00;;;7.80;97.20;;;;;;6104933;23;20670;-71
2023/04/13 02:03:42;;;;;;;2.23;0.80;;;7.90;96.70;;;;;;6139742;23;20427;-70
2023/04/13 02:06:08;;;;;;;3.23;1.13;;;7.90;96.30;;;;;;6081208;23;20730;-70
2023/04/13 02:08:39;;;;;;;2.33;0.77;;;7.90;96.60;;;;;;6105119;23;20387;-69
2023/04/13 02:11:05;;;;;;;1.40;0.80;;;7.90;96.40;;;;;;6143471;23;20364;-70
2023/04/13 02:13:31;;;;;;;2.00;0.70;;;8.00;96.80;;;;;;6106518;23;20398;-69
2023/04/13 02:15:58;;;;;;;3.63;0.80;;;8.00;96.60;;;;;;6105394;23;20415;-72
2023/04/13 02:18:24;;;;;;;5.10;0.80;;;8.00;96.30;;;;;;6139434;23;20630;-69
2023/04/13 02:21:06;;;;;;;2.23;0.80;;;8.00;96.40;;;;;;6105210;23;20156;-71
2023/04/13 02:23:33;;;;;;;1.53;0.73;;;8.00;96.20;;;;;;6105942;23;20437;-70
2023/04/13 02:25:59;;;;;;;3.00;0.87;;;8.00;96.50;;;;;;6105648;23;20391;-70
2023/04/13 02:28:26;;;;;;;4.03;2.33;;;8.00;96.90;;;;;;6104533;23;20387;-71
2023/04/13 02:30:53;;;;;;;2.53;1.43;;;8.00;97.00;;;;;;6104912;23;20775;-70
2023/04/13 02:33:20;;;;;;;3.83;1.00;;;7.90;97.20;;;;;;6139095;23;20719;-71
2023/04/13 02:35:48;;;;;;;2.13;0.80;;;8.00;96.80;;;;;;6138751;23;20424;-70
2023/04/13 02:38:15;;;;;;;2.30;0.70;;;8.00;96.70;;;;;;6104667;23;20387;-69
2023/04/13 02:40:44;;;;;;;2.90;1.10;;;8.00;96.90;;;;;;6104921;23;20803;-70
2023/04/13 02:43:11;;;;;;;5.90;0.90;;;7.90;97.30;;;;;;6104837;23;20423;-71
2023/04/13 02:45:38;;;;;;;1.70;0.90;;;7.90;97.30;;;;;;6104171;23;20414;-70
2023/04/13 02:48:08;;;;;;;3.00;1.00;;;7.90;97.40;;;;;;6103765;23;20392;-69
2023/04/13 02:50:34;;;;;;;2.13;0.77;;;8.00;97.40;;;;;;6139890;23;20644;-72
2023/04/13 02:53:06;;;;;;;2.40;1.00;;;8.00;97.10;;;;;;6103892;23;20422;-70
2023/04/13 02:55:32;;;;;;;2.97;1.00;;;8.00;97.30;;;;;;6103613;23;20452;-71
2023/04/13 02:58:03;;;;;;;2.10;0.80;;;8.00;97.60;;;;;;6104514;23;20404;-70
2023/04/13 03:00:29;;;;;;;2.33;1.30;;;8.00;97.40;;;;;;6140859;23;20412;-70
2023/04/13 03:03:02;;;;;;;3.83;1.43;;;8.00;97.20;;;;;;6140078;23;20432;-70
2023/04/13 03:05:31;;;;;;;4.60;1.20;;;8.00;97.50;;;;;;6105950;23;20383;-71
2023/04/13 03:07:58;;;;;;;8.40;2.37;;;8.00;97.70;;;;;;6103932;23;20396;-71
2023/04/13 03:10:24;;;;;;;2.87;1.10;;;8.00;97.70;;;;;;6103991;23;20950;-70
2023/04/13 03:12:50;;;;;;;2.13;1.00;;;8.00;97.60;;;;;;6103321;23;20403;-70
2023/04/13 03:15:17;;;;;;;2.27;0.90;;;8.00;97.90;;;;;;6102898;23;20380;-72
2023/04/13 03:17:43;;;;;;;1.93;0.90;;;7.90;98.20;;;;;;6139062;23;20476;-70
2023/04/13 03:20:14;;;;;;;4.00;0.80;;;8.00;97.70;;;;;;6103206;23;20812;-69
2023/04/13 03:22:47;;;;;;;3.33;0.90;;;8.00;97.60;;;;;;6103327;23;20439;-70
2023/04/13 03:25:13;;;;;;;1.73;0.80;;;8.00;97.90;;;;;;6103644;23;20421;-69
2023/04/13 03:27:39;;;;;;;2.10;1.00;;;8.00;98.20;;;;;;6103289;23;20223;-69
2023/04/13 03:30:06;;;;;;;2.30;0.70;;;8.00;98.50;;;;;;6103667;23;20422;-72
2023/04/13 03:32:39;;;;;;;3.37;0.80;;;8.00;98.30;;;;;;6083209;23;20480;-70
2023/04/13 03:35:05;;;;;;;2.47;1.27;;;8.00;98.70;;;;;;6141926;23;20448;-69
2023/04/13 03:37:38;;;;;;;1.30;0.70;;;8.00;99.00;;;;;;6108358;23;20379;-70
2023/04/13 03:40:10;;;;;;;2.83;0.70;;;7.90;99.10;;;;;;6111012;23;20384;-70
2023/04/13 03:42:44;;;;;;;3.50;1.60;;;8.00;99.10;;;;;;6109357;23;20490;-69
2023/04/13 03:45:10;;;;;;;4.00;1.00;;;8.00;99.00;;;;;;6109036;23;20411;-71
2023/04/13 03:47:38;;;;;;;2.53;0.90;;;8.00;98.90;;;;;;6112033;23;20385;-70
2023/04/13 03:50:05;;;;;;;4.13;1.00;;;8.00;99.20;;;;;;6107399;23;20627;-71
2023/04/13 03:52:33;;;;;;;2.00;1.00;;;8.00;99.80;;;;;;6103392;23;20491;-70
2023/04/13 03:54:59;;;;;;;1.83;0.90;;;8.00;99.80;;;;;;6139104;23;20372;-71
2023/04/13 03:57:29;;;;;;;1.67;0.60;;;8.00;99.90;;;;;;6103745;23;20226;-70
2023/04/13 03:59:56;;;;;;;2.20;0.93;;;7.90;99.90;;;;;;6139460;23;20379;-70
2023/04/13 04:02:40;;;;;;;3.90;1.20;;;7.90;99.90;;;;;;6132231;23;20423;-69
2023/04/13 04:05:09;;;;;;;2.90;1.30;;;8.00;99.90;;;;;;6106609;23;20836;-71
2023/04/13 04:07:37;;;;;;;3.37;0.90;;;7.90;99.90;;;;;;6107203;23;20380;-70
2023/04/13 04:10:03;;;;;;;4.20;1.80;;;8.00;99.90;;;;;;6083750;23;20390;-71
2023/04/13 04:12:29;;;;;;;3.10;1.20;;;8.00;99.90;;;;;;6109026;23;20725;-71
2023/04/13 04:14:54;;;;;;;3.13;1.20;;;8.00;99.90;;;;;;6108652;23;20462;-70
2023/04/13 04:17:24;;;;;;;1.23;0.80;;;8.00;99.90;;;;;;6108124;23;20154;-71
2023/04/13 04:19:50;;;;;;;4.33;1.13;;;8.00;99.90;;;;;;6143613;23;20769;-72
2023/04/13 04:22:20;;;;;;;1.43;0.97;;;8.00;99.90;;;;;;6106346;23;20187;-70
2023/04/13 04:24:45;;;;;;;2.80;1.00;;;8.00;99.90;;;;;;6108151;23;20746;-70
2023/04/13 04:27:13;;;;;;;3.87;1.03;;;8.00;99.90;;;;;;6110363;23;20152;-70
2023/04/13 04:29:39;;;;;;;3.20;1.17;;;8.00;99.90;;;;;;6109699;23;20506;-70
2023/04/13 04:32:25;;;;;;;2.57;0.77;;;8.00;99.90;;;;;;6137718;23;20412;-71
2023/04/13 04:34:52;;;;;;;2.00;0.90;;;8.10;99.90;;;;;;6084712;23;20388;-70
2023/04/13 04:37:22;;;;;;;5.23;1.53;;;8.10;99.90;;;;;;6085858;23;20384;-70
2023/04/13 04:40:11;;;;;;;5.83;1.43;;;8.10;99.90;;;;;;6110055;23;20397;-69
2023/04/13 04:42:38;;;;;;;3.93;1.00;;;8.20;99.90;;;;;;6085705;23;20686;-70
2023/04/13 04:45:09;;;;;;;2.10;0.90;;;8.20;99.90;;;;;;6109051;23;20383;-70
2023/04/13 04:47:43;;;;;;;2.70;1.00;;;8.20;99.90;;;;;;6111033;23;20372;-70
2023/04/13 04:50:19;;;;;;;2.70;0.60;;;8.30;99.90;;;;;;6112791;23;20376;-70
2023/04/13 04:52:49;;;;;;;2.40;0.93;;;8.40;99.50;;;;;;6115028;23;20434;-71
2023/04/13 04:55:19;;;;;;;3.90;1.17;;;8.30;99.30;;;;;;6112480;23;20375;-71
2023/04/13 04:57:45;;;;;;;4.87;1.10;;;8.30;99.50;;;;;;6090749;23;20408;-73
2023/04/13 05:00:16;;;;;;;3.83;1.40;;;8.30;99.60;;;;;;6114320;23;20144;-71
2023/04/13 05:02:49;;;;;;;2.93;1.50;;;8.30;99.90;;;;;;6115085;23;20459;-69
2023/04/13 05:05:15;;;;;;;3.53;1.10;;;8.30;99.90;;;;;;6118676;23;20415;-74
2023/04/13 05:07:41;;;;;;;3.10;1.13;;;8.20;99.90;;;;;;6094641;23;20383;-70
2023/04/13 05:10:09;;;;;;;4.40;0.90;;;8.20;99.90;;;;;;6094877;23;20383;-72
2023/04/13 05:12:39;;;;;;;1.70;0.70;;;8.20;99.90;;;;;;6094131;23;20422;-73
2023/04/13 05:15:06;;;;;;;2.23;1.00;;;8.20;99.90;;;;;;6121751;23;20634;-71
2023/04/13 05:17:33;;;;;;;2.00;1.10;;;8.20;99.90;;;;;;6110235;23;20156;-71
2023/04/13 05:19:59;;;;;;;1.63;0.80;;;8.20;99.90;;;;;;6110379;23;20439;-71
2023/04/13 05:22:33;;;;;;;2.00;0.80;;;8.20;99.90;;;;;;6112151;23;20431;-70
2023/04/13 05:25:03;;;;;;;1.73;0.77;;;8.20;99.90;;;;;;6112365;23;20383;-71
2023/04/13 05:27:29;;;;;;;2.10;0.90;;;8.20;99.90;;;;;;6110303;23;20416;-71
2023/04/13 05:29:56;;;;;;;2.30;0.70;;;8.20;99.90;;;;;;6110572;23;20383;-72
2023/04/13 05:32:23;;;;;;;1.67;0.60;;;8.30;99.90;;;;;;6112546;23;20195;-74
2023/04/13 05:34:52;;;;;;;2.00;0.77;;;8.40;99.90;;;;;;6071944;23;20407;-70
2023/04/13 05:37:22;;;;;;;4.50;3.33;;;8.30;99.80;;;;;;6114541;23;20379;-71
2023/04/13 05:39:50;;;;;;;2.20;0.70;;;8.30;99.90;;;;;;6094015;23;20388;-71
2023/04/13 05:42:19;;;;;;;2.50;0.60;;;8.30;99.70;;;;;;6094441;23;20923;-71
2023/04/13 05:44:45;;;;;;;1.63;0.90;;;8.40;98.10;;;;;;6094568;23;20403;-74
2023/04/13 05:47:12;;;;;;;2.57;1.00;;;8.30;98.50;;;;;;6093375;23;20623;-71
2023/04/13 05:49:40;;;;;;;6.80;1.27;;;8.30;99.20;;;;;;6127447;23;20781;-74
2023/04/13 05:52:11;;;;;;;3.40;0.70;;;8.30;99.80;;;;;;6092109;23;20412;-72
2023/04/13 05:54:46;;;;;;;1.50;0.70;;;8.30;99.90;;;;;;6072226;23;20744;-71
2023/04/13 05:57:11;;;;;;;2.10;0.70;;;8.40;99.90;;;;;;6092183;23;20375;-74
2023/04/13 05:59:43;;;;;;;1.30;0.60;;;8.30;99.90;;;;;;6092611;23;20537;-73
2023/04/13 06:02:12;;;;;;;2.70;1.10;;;8.30;99.90;;;;;;6083246;23;20432;-72
2023/04/13 06:04:37;;;;;;;1.53;0.60;;;8.30;99.90;;;;;;6057820;23;20463;-73
2023/04/13 06:07:03;;;;;;;4.83;0.90;;;8.20;99.90;;;;;;6081994;23;20149;-72
2023/04/13 06:09:28;;;;;;;1.63;0.80;;;8.30;99.90;;;;;;6036391;23;20440;-73
2023/04/13 06:11:54;;;;;;;1.87;0.93;;;8.30;99.90;;;;;;6056080;23;20487;-71
2023/04/13 06:14:21;;;;;;;1.33;0.70;;;8.40;99.90;;;;;;6032667;23;20160;-73
2023/04/13 06:16:46;;;;;;;1.90;0.63;;;8.30;99.90;;;;;;6057252;23;20215;-72
2023/04/13 06:19:12;;;;;;;1.40;0.90;;;8.40;99.90;;;;;;6068146;23;20502;-74
2023/04/13 06:21:38;;;;;;;2.30;0.93;;;8.40;99.90;;;;;;6078518;23;20169;-75
2023/04/13 06:24:04;;;;;;;1.23;0.87;;;8.40;99.90;;;;;;6091121;23;20406;-75
2023/04/13 06:26:34;;;;;;;3.03;0.90;;;8.40;99.90;;;;;;6058384;23;20221;-73
2023/04/13 06:29:02;;;;;;;3.13;0.83;;;8.40;99.90;;;;;;6083254;23;20376;-73
2023/04/13 06:31:34;;;;;;;1.17;0.77;;;8.50;99.90;;;;;;6057722;23;20410;-70
2023/04/13 06:34:04;;;;;;;1.73;0.60;;;8.50;99.90;;;;;;6054849;23;20397;-74
2023/04/13 06:36:46;;;;;;;3.10;1.17;;;8.50;99.90;;;;;;6056704;23;20386;-73
2023/04/13 06:39:16;;;;;;;2.47;0.80;;;8.50;99.90;;;;;;6078267;23;20427;-75
2023/04/13 06:41:49;;;;;;;2.30;1.00;;;8.60;99.90;;;;;;6093081;23;20837;-74
2023/04/13 06:44:37;;;;;;;2.60;1.40;;;8.70;99.90;;;;;;6117221;23;20400;-74
2023/04/13 06:47:04;;;;;;;5.53;1.10;;;8.80;99.60;;;;;;6121462;23;20442;-73
2023/04/13 06:49:32;;;;;;;1.00;0.60;;;9.00;98.50;;;;;;6090055;23;20155;-72
2023/04/13 06:51:59;;;;;;;3.27;1.00;;;9.00;97.90;;;;;;6091341;23;20737;-72
2023/04/13 06:54:25;;;;;;;2.43;0.80;;;9.20;97.50;;;;;;6124811;23;20626;-75
2023/04/13 06:56:57;;;;;;;1.73;0.87;;;9.50;96.60;;;;;;6115815;23;20170;-73
2023/04/13 06:59:23;;;;;;;1.50;0.60;;;9.70;93.20;;;;;;6116348;23;20452;-71
2023/04/13 07:01:49;;;;;;;0.90;0.50;;;9.80;92.80;;;;;;6118159;23;20331;-75
2023/04/13 07:04:15;;;;;;;1.57;0.70;;;9.90;93.00;;;;;;6122360;23;20153;-75
2023/04/13 07:06:43;;;;;;;1.33;0.80;;;10.10;92.10;;;;;;6092113;23;20411;-73
2023/04/13 07:09:08;;;;;;;1.43;0.87;;;10.20;90.40;;;;;;6091158;23;20427;-71
2023/04/13 07:11:35;;;;;;;2.10;1.20;;;10.20;88.80;;;;;;6116661;23;20167;-72
2023/04/13 07:14:02;;;;;;;1.90;0.90;;;10.30;89.30;;;;;;6097749;23;20198;-72
2023/04/13 07:16:29;;;;;;;1.13;0.90;;;10.40;90.00;;;;;;6093744;23;20447;-74
2023/04/13 07:18:55;;;;;;;3.30;1.20;;;10.40;89.50;;;;;;6094561;23;20380;-75
2023/04/13 07:21:30;;;;;;;2.87;1.00;;;10.50;88.20;;;;;;6094769;23;20174;-73
2023/04/13 07:24:02;;;;;;;1.90;0.90;;;10.60;88.30;;;;;;6117760;23;20430;-72
2023/04/13 07:26:30;;;;;;;2.40;0.93;;;10.70;88.50;;;;;;6115567;23;20372;-73
2023/04/13 07:28:57;;;;;;;2.20;0.90;;;10.70;87.50;;;;;;6118093;23;20379;-74
2023/04/13 07:31:27;;;;;;;1.30;0.70;;;10.60;88.80;;;;;;6118108;23;20427;-72
2023/04/13 07:33:55;;;;;;;4.73;1.10;;;10.70;90.20;;;;;;6069304;23;20401;-74
2023/04/13 07:36:32;;;;;;;4.47;1.60;;;10.80;89.40;;;;;;6116786;23;20817;-73
2023/04/13 07:39:03;;;;;;;1.80;1.10;;;11.10;87.60;;;;;;6092774;23;20399;-74
2023/04/13 07:41:31;;;;;;;2.90;1.03;;;11.20;84.20;;;;;;6116386;23;20403;-73
2023/04/13 07:43:59;;;;;;;2.73;1.20;;;11.30;81.40;;;;;;6093382;23;20375;-73
2023/04/13 07:46:26;;;;;;;4.67;1.20;;;11.40;82.20;;;;;;6118285;23;20382;-75
2023/04/13 07:48:52;;;;;;;1.87;0.90;;;11.40;76.90;;;;;;6104649;23;20364;-76
2023/04/13 07:51:23;;;;;;;2.43;1.27;;;11.40;79.70;;;;;;6095041;23;20404;-72
2023/04/13 07:53:51;;;;;;;3.83;1.20;;;11.30;75.50;;;;;;6092710;23;20510;-74
2023/04/13 07:56:17;;;;;;;1.70;0.90;;;11.10;80.50;;;;;;6117726;23;20166;-72
2023/04/13 07:58:44;;;;;;;7.53;1.00;;;11.10;82.50;;;;;;6097853;23;20379;-74
2023/04/13 08:01:10;;;;;;;1.20;0.73;;;11.00;82.00;;;;;;6095755;23;20449;-76
2023/04/13 08:03:36;;;;;;;3.13;1.00;;;10.80;84.40;;;;;;6094032;23;20440;-71
2023/04/13 08:06:10;;;;;;;1.50;0.93;;;10.90;83.80;;;;;;6094508;23;20388;-72
2023/04/13 08:08:36;;;;;;;1.53;0.83;;;10.90;86.70;;;;;;6093747;23;20380;-73
2023/04/13 08:11:02;;;;;;;1.47;1.00;;;11.00;86.60;;;;;;6115598;23;20432;-73
2023/04/13 08:13:29;;;;;;;1.50;1.10;;;11.00;85.80;;;;;;6090921;23;20704;-72
2023/04/13 08:15:56;;;;;;;2.00;1.23;;;11.00;84.30;;;;;;6090179;23;20387;-73
2023/04/13 08:18:22;;;;;;;2.77;1.20;;;10.80;87.50;;;;;;6117008;23;20172;-74
2023/04/13 08:20:49;;;;;;;3.13;1.13;;;10.80;88.50;;;;;;6094678;23;20804;-74
2023/04/13 08:23:17;;;;;;;2.90;1.40;;;10.70;90.00;;;;;;6095723;23;20423;-72
2023/04/13 08:25:43;;;;;;;4.17;1.40;;;10.70;90.40;;;;;;6118084;23;20403;-73
2023/04/13 08:28:09;;;;;;;6.17;1.37;;;10.70;91.40;;;;;;6117551;23;20380;-71
2023/04/13 08:30:35;;;;;;;4.03;1.20;;;10.70;91.10;;;;;;6116382;23;20164;-74
2023/04/13 08:33:02;;;;;;;5.00;1.83;;;10.90;89.40;;;;;;6093264;23;20171;-72
2023/04/13 08:35:28;;;;;;;5.60;1.70;;;10.80;90.20;;;;;;6117631;23;20399;-73
2023/04/13 08:37:57;;;;;;;5.40;1.80;;;10.80;90.30;;;;;;6094144;23;20456;-73
2023/04/13 08:40:23;;;;;;;4.90;1.50;;;10.80;90.80;;;;;;6095476;23;20433;-75
2023/04/13 08:42:55;;;;;;;3.57;1.67;;;10.70;91.40;;;;;;6098758;23;20427;-76
2023/04/13 08:45:23;;;;;;;9.90;2.13;;;10.70;91.60;;;;;;6097118;23;20380;-76
2023/04/13 08:47:50;;;;;;;5.00;2.10;;;10.90;90.00;;;;;;6100647;23;20364;-74
2023/04/13 08:50:21;;;;;;;5.07;1.83;;;10.90;90.10;;;;;;6100247;23;20812;-75
2023/04/13 08:52:50;;;;;;;6.70;1.70;;;11.00;90.00;;;;;;6100858;23;20667;-75
2023/04/13 08:55:16;;;;;;;4.50;1.93;;;11.10;88.00;;;;;;6098078;23;20388;-74
2023/04/13 08:57:47;;;;;;;3.97;2.10;;;11.10;87.50;;;;;;6124516;23;20160;-76
2023/04/13 09:00:18;;;;;;;6.73;1.80;;;11.10;88.20;;;;;;6122998;23;20377;-74
2023/04/13 09:02:47;;;;;;;5.07;2.10;;;11.40;83.60;;;;;;6120482;23;20533;-74
2023/04/13 09:05:19;;;;;;;6.53;2.40;;;11.40;83.90;;;;;;6122245;23;20392;-76
2023/04/13 09:07:56;;;;;;;4.83;1.70;;;11.40;84.40;;;;;;6060922;23;20364;-77
2023/04/13 09:10:25;;;;;;;4.27;1.70;;;11.50;84.50;;;;;;6127171;23;20391;-74
2023/04/13 09:12:51;;;;;;;7.30;2.30;;;11.60;84.30;;;;;;6097034;23;20436;-73
2023/04/13 09:15:20;;;;;;;4.77;2.20;;;11.70;81.90;;;;;;6098032;23;20403;-76
2023/04/13 09:18:08;;;;;;;7.87;2.80;;;12.00;79.30;;;;;;6104367;23;20383;-74
2023/04/13 09:20:38;;;;;;;10.97;2.67;;;12.10;77.70;;;;;;6078913;23;20453;-72
2023/04/13 09:23:16;;;;;;;7.70;2.23;;;12.10;75.00;;;;;;6096883;23;20431;-74
2023/04/13 09:25:45;;;;;;;3.67;1.40;;;12.10;76.00;;;;;;6100257;23;20399;-75
2023/04/13 09:28:18;;;;;;;6.70;2.03;;;12.00;80.70;;;;;;6102285;23;20413;-76
2023/04/13 09:30:45;;;;;;;8.27;2.30;;;11.70;89.00;;;;;;6075572;23;20386;-73
2023/04/13 09:33:15;;;;;;;5.83;2.13;;;11.40;90.80;;;;;;6064215;23;20524;-73
2023/04/13 09:35:43;;;;;;;8.90;2.70;;;11.20;92.60;;;;;;6090616;23;20386;-75
2023/04/13 09:38:14;;;;;;;5.50;2.00;;;11.10;94.30;;;;;;6113888;23;20385;-75
2023/04/13 09:40:48;;;;;;;5.50;2.30;;;11.20;96.40;;;;;;6086064;23;20460;-76
2023/04/13 09:43:13;;;;;;;7.70;3.00;;;11.60;95.30;;;;;;6006055;23;20768;-74
2023/04/13 09:45:44;;;;;;;7.87;2.53;;;11.70;92.90;;;;;;5971955;24;20393;-75
2023/04/13 09:48:17;;;;;;;9.80;3.60;;;11.90;91.40;;;;;;5970664;24;20406;-73
2023/04/13 09:50:44;;;;;;;9.47;3.40;;;12.20;85.40;;;;;;5994645;24;20388;-76
2023/04/13 09:53:10;;;;;;;7.90;2.60;;;12.30;82.30;;;;;;5972845;24;20409;-76
2023/04/13 09:55:39;;;;;;;12.53;3.40;;;12.50;82.40;;;;;;5949681;24;20479;-74
2023/04/13 09:58:12;;;;;;;6.63;2.03;;;12.50;74.00;;;;;;5947321;24;20390;-72
2023/04/13 10:00:42;;;;;;;8.30;2.80;;;12.60;76.00;;;;;;6004201;24;20393;-77
2023/04/13 10:03:13;;;;;;;9.97;2.90;;;12.80;75.50;;;;;;5970451;24;20473;-74
2023/04/13 10:05:41;;;;;;;8.77;2.40;;;13.10;72.70;;;;;;5958439;24;20394;-73
2023/04/13 10:08:13;;;;;;;8.90;3.13;;;13.40;67.50;;;;;;5993776;24;20422;-74
2023/04/13 10:10:40;;;;;;;12.03;4.93;;;13.40;67.30;;;;;;5980253;24;20429;-70
2023/04/13 10:13:19;;;;;;;7.87;3.53;;;13.20;65.80;;;;;;5997799;23;20409;-73
2023/04/13 10:16:21;;;;;;;7.53;2.30;;;12.90;69.00;;;;;;6050010;23;20158;-74
2023/04/13 10:19:00;;;;;;;7.90;2.13;;;12.70;69.70;;;;;;5999039;23;20388;-74
2023/04/13 10:21:38;;;;;;;6.83;2.20;;;12.40;76.50;;;;;;6000714;23;20451;-74
2023/04/13 10:24:10;;;;;;;6.50;2.33;;;12.20;84.70;;;;;;5979882;24;20400;-74
2023/04/13 10:26:36;;;;;;;8.17;2.50;;;12.00;90.00;;;;;;6002789;24;20395;-73
2023/04/13 10:29:03;;;;;;;8.17;2.90;;;11.80;90.10;;;;;;6005432;24;20579;-72
2023/04/13 10:32:01;;;;;;;9.80;3.07;;;11.80;92.60;;;;;;5996950;23;20432;-73
2023/04/13 10:34:29;;;;;;;6.70;2.53;;;11.90;90.20;;;;;;5952925;24;20416;-75
2023/04/13 10:36:57;;;;;;;9.27;3.60;;;12.00;91.60;;;;;;5950721;24;20532;-73
2023/04/13 10:39:31;;;;;;;9.60;3.60;;;12.40;90.50;;;;;;5952525;24;20398;-73
2023/04/13 10:42:05;;;;;;;9.93;2.40;;;12.60;82.90;;;;;;5953429;24;20420;-75
2023/04/13 10:44:52;;;;;;;3.77;2.07;;;12.40;85.20;;;;;;5950036;24;20422;-74
2023/04/13 10:47:21;;;;;;;13.37;3.00;;;12.70;86.00;;;;;;5953778;24;20398;-73
2023/04/13 10:49:48;;;;;;;8.53;2.97;;;12.90;81.50;;;;;;5961336;24;20841;-75
2023/04/13 10:52:15;;;;;;;6.67;2.50;;;13.10;82.10;;;;;;5952906;24;20417;-74
2023/04/13 10:54:42;;;;;;;9.37;3.80;;;13.20;78.20;;;;;;5950129;24;20408;-73
2023/04/13 10:57:09;;;;;;;8.77;3.70;;;13.20;74.20;;;;;;5999925;23;20669;-75
2023/04/13 10:59:55;;;;;;;11.57;2.90;;;13.20;74.40;;;;;;6033669;23;20374;-75
2023/04/13 11:02:23;;;;;;;16.00;3.73;;;13.10;73.20;;;;;;6053048;23;20449;-70
2023/04/13 11:04:49;;;;;;;8.23;3.10;;;13.20;68.90;;;;;;5983589;23;20365;-73
2023/04/13 11:07:27;;;;;;;8.30;3.10;;;13.50;65.30;;;;;;6029732;23;20462;-74
2023/04/13 11:10:01;;;;;;;7.43;2.63;;;13.70;63.20;;;;;;6030860;23;20402;-74
2023/04/13 11:12:31;;;;;;;6.87;2.30;;;13.90;59.60;;;;;;6090139;23;20381;-74
2023/04/13 11:14:58;;;;;;;8.30;3.80;;;13.50;54.90;;;;;;6043241;23;20396;-76
2023/04/13 11:17:26;;;;;;;7.63;3.37;;;13.20;55.30;;;;;;6068610;23;20421;-75
2023/04/13 11:19:54;;;;;;;8.43;2.80;;;13.20;56.20;;;;;;6094469;23;20393;-74
2023/04/13 11:22:23;;;;;;;5.60;2.50;;;13.20;56.00;;;;;;6068539;23;20448;-74
2023/04/13 11:24:50;;;;;;;10.20;4.50;;;13.50;55.50;;;;;;6019798;23;20497;-74
2023/04/13 11:27:20;;;;;;;9.87;3.10;;;13.70;54.60;;;;;;6019084;23;20421;-75
2023/04/13 11:30:04;;;;;;;6.90;2.53;;;13.90;54.30;;;;;;6063753;23;20457;-75
2023/04/13 11:32:32;;;;;;;15.30;5.30;;;13.90;53.30;;;;;;6030579;23;20451;-73
2023/04/13 11:35:12;;;;;;;8.23;3.40;;;14.00;54.40;;;;;;6114160;23;20386;-73
2023/04/13 11:37:47;;;;;;;14.70;3.20;;;14.00;54.20;;;;;;6091129;23;20443;-75
2023/04/13 11:40:20;;;;;;;12.10;3.63;;;13.90;55.00;;;;;;6127275;23;20476;-74
2023/04/13 11:42:48;;;;;;;11.40;3.07;;;14.10;54.10;;;;;;6078624;23;20442;-75
2023/04/13 11:45:15;;;;;;;11.03;3.83;;;14.50;53.80;;;;;;6034967;23;20371;-73
2023/04/13 11:47:42;;;;;;;8.73;3.60;;;14.80;51.90;;;;;;6040713;23;20382;-75
2023/04/13 11:50:09;;;;;;;8.43;2.67;;;15.00;51.30;;;;;;6073034;23;20362;-74
2023/04/13 11:52:37;;;;;;;6.80;2.63;;;15.30;50.80;;;;;;6061204;23;20410;-71
2023/04/13 11:55:03;;;;;;;10.87;3.03;;;15.40;49.80;;;;;;6013742;23;20385;-73
2023/04/13 11:57:31;;;;;;;5.93;2.83;;;14.90;48.70;;;;;;6069868;23;20415;-74
2023/04/13 11:59:57;;;;;;;5.53;2.27;;;14.80;49.00;;;;;;6082017;23;20406;-72
2023/04/13 12:02:28;;;;;;;7.27;2.30;;;14.80;48.90;;;;;;6036449;23;20518;-76
2023/04/13 12:04:55;;;;;;;5.20;3.00;;;14.90;48.60;;;;;;6010595;23;20487;-75
2023/04/13 12:07:21;;;;;;;7.93;2.20;;;14.70;48.50;;;;;;6080108;23;20406;-74
2023/04/13 12:09:50;;;;;;;6.40;3.10;;;14.80;48.70;;;;;;6060388;23;20381;-73
2023/04/13 12:12:24;;;;;;;8.83;2.87;;;15.00;48.80;;;;;;6081075;23;20410;-74
2023/04/13 12:14:55;;;;;;;7.53;2.47;;;15.20;47.70;;;;;;6058794;23;20478;-73
2023/04/13 12:17:20;;;;;;;7.40;3.07;;;15.50;47.60;;;;;;6057773;23;20418;-74
2023/04/13 12:19:54;;;;;;;10.30;2.53;;;15.60;47.00;;;;;;6068484;23;20394;-73
2023/04/13 12:22:22;;;;;;;5.90;1.97;;;16.00;46.00;;;;;;6081354;23;20238;-73
2023/04/13 12:24:47;;;;;;;6.67;2.50;;;16.00;45.40;;;;;;6059424;23;20375;-75
2023/04/13 12:27:13;;;;;;;8.40;2.20;;;15.70;44.80;;;;;;6083788;23;20457;-74
2023/04/13 12:29:40;;;;;;;10.00;3.20;;;15.60;44.00;;;;;;6072081;23;20138;-74
2023/04/13 12:32:12;;;;;;;8.30;3.40;;;15.30;44.40;;;;;;6035394;23;20448;-74
2023/04/13 12:34:40;;;;;;;8.23;3.53;;;15.40;44.90;;;;;;6062194;23;20458;-75
2023/04/13 12:37:06;;;;;;;9.53;2.60;;;15.60;44.50;;;;;;6033643;23;20402;-73
2023/04/13 12:39:32;;;;;;;6.00;2.30;;;15.40;43.20;;;;;;6114942;23;20375;-74
2023/04/13 12:41:58;;;;;;;4.40;2.40;;;15.60;43.80;;;;;;6082057;23;20402;-74
2023/04/13 12:44:24;;;;;;;7.63;2.17;;;15.80;43.30;;;;;;6105009;23;20446;-75
2023/04/13 12:46:52;;;;;;;6.13;2.13;;;15.50;42.00;;;;;;6081115;23;20194;-74
2023/04/13 12:49:18;;;;;;;5.70;2.00;;;15.60;42.50;;;;;;6058895;23;20462;-74
2023/04/13 12:51:45;;;;;;;6.60;2.53;;;15.60;42.70;;;;;;6083231;23;20669;-75
2023/04/13 12:54:16;;;;;;;6.40;2.47;;;15.90;42.50;;;;;;6084632;23;20150;-73
2023/04/13 12:56:42;;;;;;;10.00;2.67;;;15.70;42.10;;;;;;6039816;23;20395;-76
2023/04/13 12:59:11;;;;;;;10.43;2.83;;;16.00;42.60;;;;;;6081856;23;20394;-74
2023/04/13 13:01:40;;;;;;;8.10;2.53;;;16.00;40.70;;;;;;6091787;23;20200;-75
2023/04/13 13:04:06;;;;;;;10.70;2.20;;;16.00;38.80;;;;;;6094222;23;20382;-74